Pierre, South Dakota
Current Conditions -  °F | °C
As of 2:53 AM on Friday 28 Nov 2014 (Local Time) from KPIR Reporting Station
Clear Clear  
Wind Chill: 13°   Ceiling: Unl
Heat Index: 20°   Visibility: 10mi
Dew Point: 17°   Wind: 5mph
Humidity: 89%   Direction: 40°NE
Pressure: 29.8"   Gusts: NA
Location:  44.37°N, 100.35°W
Report Text: KPIR 280853Z AUTO 04004KT 10SM CLR M07/M08 A2980 RMK AO2 SLP114 T10671083 55016
Loading
Personal Weather Stations






























Interactive Weather Map New forecast layout! Learn more

10-Day Weather Forecast

Advertisements
Track Severe Weather on mobile